Time;durP1;ratioP1;P1;durP2;ratioP2;P2;SDS_P1;SDS_P2;PMS_P1;PMS_P2;Temp;Humidity;BMP_temperature;BMP_pressure;BME280_temperature;BME280_humidity;BME280_pressure;Samples;Min_cycle;Max_cycle;Signal;HPM_P1;HPM_P2
2021/10/14 00:02:03;;;;;;;;;;;;;;;-142.75;100.00;78011.47;5055937;28;19917;-82
2021/10/14 00:04:29;;;;;;;;;;;;;;;-142.75;100.00;78015.41;5055639;28;19976;-80
2021/10/14 00:06:54;;;;;;;;;;;;;;;-142.75;100.00;78009.50;5056532;28;19924;-80
2021/10/14 00:09:20;;;;;;;;;;;;;;;-142.75;100.00;78007.53;5040641;28;20011;-82
2021/10/14 00:11:45;;;;;;;;;;;;;;;-142.75;100.00;77999.66;5039701;28;19921;-80
2021/10/14 00:14:10;;;;;;;;;;;;;;;-142.75;100.00;78001.63;5056257;28;19917;-81
2021/10/14 00:16:35;;;;;;;;;;;;;;;-142.75;100.00;77997.69;5056538;28;19938;-82
2021/10/14 00:19:01;;;;;;;;;;;;;;;-142.75;100.00;77989.81;5056204;28;20499;-81
2021/10/14 00:21:26;;;;;;;;;;;;;;;-142.75;100.00;77983.91;5054271;28;19924;-80
2021/10/14 00:23:51;;;;;;;;;;;;;;;-142.75;100.00;77995.72;5056389;28;19917;-79
2021/10/14 00:26:16;;;;;;;;;;;;;;;-142.75;100.00;77997.69;5052594;28;19971;-80
2021/10/14 00:28:42;;;;;;;;;;;;;;;-142.75;100.00;77987.84;5055593;28;19916;-80
2021/10/14 00:31:07;;;;;;;;;;;;;;;-142.75;100.00;77987.84;5051631;28;19917;-81
2021/10/14 00:33:32;;;;;;;;;;;;;;;-142.75;100.00;77976.03;5039511;28;20030;-83
2021/10/14 00:35:57;;;;;;;;;;;;;;;-142.75;100.00;77968.16;5043944;28;19963;-80
2021/10/14 00:38:22;;;;;;;;;;;;;;;-142.75;100.00;77978.00;5055371;28;19917;-83
2021/10/14 00:40:48;;;;;;;;;;;;;;;-142.75;100.00;77972.09;5055599;28;19916;-82
2021/10/14 00:43:13;;;;;;;;;;;;;;;-142.75;100.00;77966.19;5056022;28;20290;-82
2021/10/14 00:45:39;;;;;;;;;;;;;;;-142.75;100.00;77970.13;5055091;28;19917;-82
2021/10/14 00:48:04;;;;;;;;;;;;;;;-142.75;100.00;77958.31;5048594;28;20301;-81
2021/10/14 00:50:30;;;;;;;;;;;;;;;-142.75;100.00;77962.25;5055017;28;19959;-82
2021/10/14 00:52:55;;;;;;;;;;;;;;;-142.75;100.00;77964.22;5036178;28;20512;-81
2021/10/14 00:55:20;;;;;;;;;;;;;;;-142.75;100.00;77960.28;5054527;28;19927;-81
2021/10/14 00:57:46;;;;;;;;;;;;;;;-142.75;100.00;77964.22;5055000;28;19924;-80
2021/10/14 01:00:11;;;;;;;;;;;;;;;-142.75;100.00;77958.31;5046697;28;19917;-81
2021/10/14 01:02:36;;;;;;;;;;;;;;;-142.75;100.00;77956.34;5054593;28;19967;-78
2021/10/14 01:05:02;;;;;;;;;;;;;;;-142.75;100.00;77950.44;5053825;28;19924;-80
2021/10/14 01:07:28;;;;;;;;;;;;;;;-142.75;100.00;77954.38;5046493;28;20375;-79
2021/10/14 01:09:53;;;;;;;;;;;;;;;-142.75;100.00;77956.34;5054676;28;19920;-80
2021/10/14 01:12:19;;;;;;;;;;;;;;;-142.75;100.00;77942.56;5055605;28;19932;-81
2021/10/14 01:14:44;;;;;;;;;;;;;;;-142.75;100.00;77942.56;5055162;28;19916;-80
2021/10/14 01:17:09;;;;;;;;;;;;;;;-142.75;100.00;77936.66;5045627;28;20002;-79
2021/10/14 01:19:39;;;;;;;;;;;;;;;-142.75;100.00;77938.63;5047074;28;20298;-81
2021/10/14 01:22:04;;;;;;;;;;;;;;;-142.75;100.00;77934.69;5055754;28;19917;-79
2021/10/14 01:24:29;;;;;;;;;;;;;;;-142.75;100.00;77936.66;5055296;28;19940;-80
2021/10/14 01:27:00;;;;;;;;;;;;;;;-142.75;100.00;77940.59;5054828;28;19963;-82
2021/10/14 01:29:25;;;;;;;;;;;;;;;-142.75;100.00;77938.63;5055384;28;19955;-80
2021/10/14 01:31:51;;;;;;;;;;;;;;;-142.75;100.00;77948.47;5047015;28;20440;-81
2021/10/14 01:34:16;;;;;;;;;;;;;;;-142.75;100.00;77940.59;5049223;28;19917;-80
2021/10/14 01:36:41;;;;;;;;;;;;;;;-142.75;100.00;77924.84;5055053;28;20413;-80
2021/10/14 01:39:06;;;;;;;;;;;;;;;-142.75;100.00;77930.75;5055040;28;19917;-83
2021/10/14 01:41:31;;;;;;;;;;;;;;;-142.75;100.00;77940.59;5046407;28;19921;-83
2021/10/14 01:43:57;;;;;;;;;;;;;;;-142.75;100.00;77948.47;5046071;28;19920;-82
2021/10/14 01:46:22;;;;;;;;;;;;;;;-142.75;100.00;77960.28;5046335;28;20346;-81
2021/10/14 01:48:47;;;;;;;;;;;;;;;-142.75;100.00;77954.38;5056809;28;19931;-83
2021/10/14 01:51:12;;;;;;;;;;;;;;;-142.75;100.00;77948.47;5049272;28;20341;-81
2021/10/14 01:53:37;;;;;;;;;;;;;;;-142.75;100.00;77952.41;5043820;28;19939;-80
2021/10/14 01:56:03;;;;;;;;;;;;;;;-142.75;100.00;77942.56;5054802;28;19948;-81
2021/10/14 01:58:28;;;;;;;;;;;;;;;-142.75;100.00;77944.53;5054229;28;19921;-81
2021/10/14 02:00:54;;;;;;;;;;;;;;;-142.75;100.00;77942.56;5041026;28;19959;-80
2021/10/14 02:03:19;;;;;;;;;;;;;;;-142.75;100.00;77940.59;5054312;28;19988;-82
2021/10/14 02:05:45;;;;;;;;;;;;;;;-142.75;100.00;77944.53;5045816;28;20007;-82
2021/10/14 02:08:10;;;;;;;;;;;;;;;-142.75;100.00;77942.56;5055105;28;19920;-83
2021/10/14 02:10:35;;;;;;;;;;;;;;;-142.75;100.00;77936.66;5043204;28;19917;-82
2021/10/14 02:13:01;;;;;;;;;;;;;;;-142.75;100.00;77924.84;5054231;28;19921;-80
2021/10/14 02:15:26;;;;;;;;;;;;;;;-142.75;100.00;77926.81;5054709;28;19916;-80
2021/10/14 02:17:51;;;;;;;;;;;;;;;-142.75;100.00;77932.72;5054807;28;19916;-80
2021/10/14 02:20:17;;;;;;;;;;;;;;;-142.75;100.00;77932.72;5037633;28;20000;-80
2021/10/14 02:22:42;;;;;;;;;;;;;;;-142.75;100.00;77924.84;5054770;28;20366;-81
2021/10/14 02:25:08;;;;;;;;;;;;;;;-142.75;100.00;77920.91;5050083;28;20306;-80
2021/10/14 02:27:33;;;;;;;;;;;;;;;-142.75;100.00;77924.84;5053926;28;19917;-80
2021/10/14 02:29:59;;;;;;;;;;;;;;;-142.75;100.00;77926.81;5053998;28;20429;-83
2021/10/14 02:32:24;;;;;;;;;;;;;;;-142.75;100.00;77913.03;5044635;28;19921;-81
2021/10/14 02:34:49;;;;;;;;;;;;;;;-142.75;100.00;77893.31;5047191;28;20279;-81
2021/10/14 02:37:14;;;;;;;;;;;;;;;-142.75;100.00;77897.25;5053748;28;20408;-79
2021/10/14 02:39:39;;;;;;;;;;;;;;;-142.75;100.00;77903.16;5053361;28;20386;-80
2021/10/14 02:42:05;;;;;;;;;;;;;;;-142.75;100.00;77905.13;5044118;28;19917;-77
2021/10/14 02:44:30;;;;;;;;;;;;;;;-142.75;100.00;77895.28;5038331;28;19963;-77
2021/10/14 02:46:55;;;;;;;;;;;;;;;-142.75;100.00;77885.44;5045540;28;20305;-78
2021/10/14 02:49:20;;;;;;;;;;;;;;;-142.75;100.00;77885.44;5054032;28;19917;-80
2021/10/14 02:51:45;;;;;;;;;;;;;;;-142.75;100.00;77893.31;5054157;28;19921;-81
2021/10/14 02:54:11;;;;;;;;;;;;;;;-142.75;100.00;77901.19;5054695;28;19916;-81
2021/10/14 02:56:36;;;;;;;;;;;;;;;-142.75;100.00;77895.28;5043564;28;19924;-81
2021/10/14 02:59:01;;;;;;;;;;;;;;;-142.75;100.00;77901.19;5046770;28;20007;-79
2021/10/14 03:01:26;;;;;;;;;;;;;;;-142.75;100.00;77903.16;5053172;28;19963;-79
2021/10/14 03:03:52;;;;;;;;;;;;;;;-142.75;100.00;77909.06;5043680;28;19917;-79
2021/10/14 03:06:17;;;;;;;;;;;;;;;-142.75;100.00;77909.06;5052746;28;20051;-79
2021/10/14 03:08:42;;;;;;;;;;;;;;;-142.75;100.00;77903.16;5052549;28;20378;-79
2021/10/14 03:11:07;;;;;;;;;;;;;;;-142.75;100.00;77889.38;5039930;28;19921;-77
2021/10/14 03:13:32;;;;;;;;;;;;;;;-142.75;100.00;77897.25;5041637;28;19924;-77
2021/10/14 03:15:58;;;;;;;;;;;;;;;-142.75;100.00;77905.13;5045798;28;19963;-79
2021/10/14 03:18:23;;;;;;;;;;;;;;;-142.75;100.00;77901.19;5042643;28;20442;-78
2021/10/14 03:20:48;;;;;;;;;;;;;;;-142.75;100.00;77897.25;5041594;28;20394;-79
2021/10/14 03:23:13;;;;;;;;;;;;;;;-142.75;100.00;77885.44;5053462;28;20462;-78
2021/10/14 03:25:39;;;;;;;;;;;;;;;-142.75;100.00;77893.31;5039209;28;19917;-78
2021/10/14 03:28:04;;;;;;;;;;;;;;;-142.75;100.00;77879.53;5053217;28;19925;-79
2021/10/14 03:30:29;;;;;;;;;;;;;;;-142.75;100.00;77877.56;5052745;28;20390;-80
2021/10/14 03:32:54;;;;;;;;;;;;;;;-142.75;100.00;77865.75;5047414;28;19921;-80
2021/10/14 03:35:19;;;;;;;;;;;;;;;-142.75;100.00;77857.88;5042925;28;19979;-81
2021/10/14 03:37:46;;;;;;;;;;;;;;;-142.75;100.00;77853.94;5043458;28;19917;-80
2021/10/14 03:40:12;;;;;;;;;;;;;;;-142.75;100.00;77850.00;5065776;22;19932;-78
2021/10/14 03:42:37;;;;;;;;;;;;;;;-142.75;100.00;77857.88;5051068;28;19925;-75
2021/10/14 03:45:03;;;;;;;;;;;;;;;-142.75;100.00;77850.00;5069099;28;19917;-78
2021/10/14 03:47:28;;;;;;;;;;;;;;;-142.75;100.00;77844.09;5052389;28;19978;-79
2021/10/14 03:49:53;;;;;;;;;;;;;;;-142.75;100.00;77836.22;5070765;28;19916;-80
2021/10/14 03:52:18;;;;;;;;;;;;;;;-142.75;100.00;77842.13;5071286;28;20043;-81
2021/10/14 03:54:43;;;;;;;;;;;;;;;-142.75;100.00;77838.19;5071966;28;19970;-81
2021/10/14 03:57:09;;;;;;;;;;;;;;;-142.75;100.00;77832.28;5052874;28;19916;-79
2021/10/14 03:59:34;;;;;;;;;;;;;;;-142.75;100.00;77836.22;5071436;28;19955;-80
2021/10/14 04:01:59;;;;;;;;;;;;;;;-142.75;100.00;77840.16;5053119;28;20274;-81
2021/10/14 04:04:24;;;;;;;;;;;;;;;-142.75;100.00;77840.16;5071507;28;19985;-80
2021/10/14 04:06:49;;;;;;;;;;;;;;;-142.75;100.00;77838.19;5071376;28;20341;-79
2021/10/14 04:09:15;;;;;;;;;;;;;;;-142.75;100.00;77857.88;5056480;28;19932;-80
2021/10/14 04:11:40;;;;;;;;;;;;;;;-142.75;100.00;77848.03;5057006;28;19986;-79
2021/10/14 04:14:05;;;;;;;;;;;;;;;-142.75;100.00;77857.88;5074652;28;20534;-80
2021/10/14 04:16:30;;;;;;;;;;;;;;;-142.75;100.00;77853.94;5075044;28;19964;-80
2021/10/14 04:18:55;;;;;;;;;;;;;;;-142.75;100.00;77861.81;5057186;28;19948;-81
2021/10/14 04:21:20;;;;;;;;;;;;;;;-142.75;100.00;77863.78;5074835;28;19917;-79
2021/10/14 04:23:46;;;;;;;;;;;;;;;-142.75;100.00;77861.81;5057671;28;19931;-79
2021/10/14 04:26:11;;;;;;;;;;;;;;;-142.75;100.00;77859.84;5057322;28;20366;-79
2021/10/14 04:28:36;;;;;;;;;;;;;;;-142.75;100.00;77844.09;5056838;28;20409;-79
2021/10/14 04:31:02;;;;;;;;;;;;;;;-142.75;100.00;77828.34;5074999;28;19916;-80
2021/10/14 04:33:29;;;;;;;;;;;;;;;-142.75;100.00;77830.31;5057083;28;19929;-80
2021/10/14 04:35:54;;;;;;;;;;;;;;;-142.75;100.00;77844.09;5056662;28;19916;-79
2021/10/14 04:38:19;;;;;;;;;;;;;;;-142.75;100.00;77842.13;5074899;28;19923;-81
2021/10/14 04:40:45;;;;;;;;;;;;;;;-142.75;100.00;77840.16;5074941;28;20325;-78
2021/10/14 04:43:10;;;;;;;;;;;;;;;-142.75;100.00;77844.09;5056671;28;19982;-79
2021/10/14 04:45:35;;;;;;;;;;;;;;;-142.75;100.00;77844.09;5056740;28;19924;-78
2021/10/14 04:48:00;;;;;;;;;;;;;;;-142.75;100.00;77840.16;5057128;28;19917;-79
2021/10/14 04:50:26;;;;;;;;;;;;;;;-142.75;100.00;77834.25;5075683;28;20027;-79
2021/10/14 04:52:51;;;;;;;;;;;;;;;-142.75;100.00;77846.06;5057019;28;20471;-82
2021/10/14 04:55:16;;;;;;;;;;;;;;;-142.75;100.00;77857.88;5056905;28;19921;-79
2021/10/14 04:57:41;;;;;;;;;;;;;;;-142.75;100.00;77857.88;5056955;28;19997;-80
2021/10/14 05:00:07;;;;;;;;;;;;;;;-142.75;100.00;77842.13;5075234;28;20014;-79
2021/10/14 05:02:32;;;;;;;;;;;;;;;-142.75;100.00;77832.28;5056603;28;19985;-80
2021/10/14 05:04:57;;;;;;;;;;;;;;;-142.75;100.00;77834.25;5075236;28;19917;-81
2021/10/14 05:07:22;;;;;;;;;;;;;;;-142.75;100.00;77832.28;5075934;28;20473;-80
2021/10/14 05:09:47;;;;;;;;;;;;;;;-142.75;100.00;77842.13;5074608;28;19924;-80
2021/10/14 05:12:13;;;;;;;;;;;;;;;-142.75;100.00;77838.19;5056478;28;20489;-80
2021/10/14 05:14:38;;;;;;;;;;;;;;;-142.75;100.00;77830.31;5074543;28;19923;-80
2021/10/14 05:17:03;;;;;;;;;;;;;;;-142.75;100.00;77826.38;5056509;28;19966;-79
2021/10/14 05:19:28;;;;;;;;;;;;;;;-142.75;100.00;77830.31;5056298;28;20014;-80
2021/10/14 05:21:54;;;;;;;;;;;;;;;-142.75;100.00;77832.28;5056946;28;19917;-80
2021/10/14 05:24:20;;;;;;;;;;;;;;;-142.75;100.00;77840.16;5056604;28;19924;-80
2021/10/14 05:26:45;;;;;;;;;;;;;;;-142.75;100.00;77832.28;5074764;28;20374;-80
2021/10/14 05:29:10;;;;;;;;;;;;;;;-142.75;100.00;77834.25;5056690;28;19916;-80
2021/10/14 05:31:35;;;;;;;;;;;;;;;-142.75;100.00;77832.28;5074426;28;19931;-79
2021/10/14 05:34:00;;;;;;;;;;;;;;;-142.75;100.00;77830.31;5074122;28;19939;-80
2021/10/14 05:36:25;;;;;;;;;;;;;;;-142.75;100.00;77820.47;5073962;28;19916;-80
2021/10/14 05:38:51;;;;;;;;;;;;;;;-142.75;100.00;77826.38;5073578;28;20390;-80
2021/10/14 05:41:16;;;;;;;;;;;;;;;-142.75;100.00;77830.31;5072971;28;19924;-80
2021/10/14 05:43:42;;;;;;;;;;;;;;;-142.75;100.00;77832.28;5073782;28;19920;-79
2021/10/14 05:46:07;;;;;;;;;;;;;;;-142.75;100.00;77834.25;5073370;28;19920;-80
2021/10/14 05:48:32;;;;;;;;;;;;;;;-142.75;100.00;77828.34;5055243;28;19917;-79
2021/10/14 05:50:57;;;;;;;;;;;;;;;-142.75;100.00;77836.22;5073629;28;19962;-80
2021/10/14 05:53:22;;;;;;;;;;;;;;;-142.75;100.00;77838.19;5054932;28;19928;-81
2021/10/14 05:55:50;;;;;;;;;;;;;;;-142.75;100.00;77838.19;5072427;28;20332;-79
2021/10/14 05:58:15;;;;;;;;;;;;;;;-142.75;100.00;77838.19;5055512;28;19979;-80
2021/10/14 06:00:41;;;;;;;;;;;;;;;-142.75;100.00;77844.09;5072922;28;20386;-79
2021/10/14 06:03:06;;;;;;;;;;;;;;;-142.75;100.00;77824.41;5073789;28;20033;-79
2021/10/14 06:05:31;;;;;;;;;;;;;;;-142.75;100.00;77826.38;5055566;28;19925;-79
2021/10/14 06:07:56;;;;;;;;;;;;;;;-142.75;100.00;77824.41;5072938;28;19924;-80
2021/10/14 06:10:21;;;;;;;;;;;;;;;-142.75;100.00;77822.44;5072931;28;19995;-79
2021/10/14 06:12:47;;;;;;;;;;;;;;;-142.75;100.00;77822.44;5054926;28;20390;-79
2021/10/14 06:15:12;;;;;;;;;;;;;;;-142.75;100.00;77818.50;5054400;28;20380;-80
2021/10/14 06:17:37;;;;;;;;;;;;;;;-142.75;100.00;77812.59;5073345;28;19957;-80
2021/10/14 06:20:03;;;;;;;;;;;;;;;-142.75;100.00;77808.66;5072987;28;19941;-81
2021/10/14 06:22:28;;;;;;;;;;;;;;;-142.75;100.00;77814.56;5055194;28;19975;-80
2021/10/14 06:24:53;;;;;;;;;;;;;;;-142.75;100.00;77800.78;5073560;28;20007;-81
2021/10/14 06:27:18;;;;;;;;;;;;;;;-142.75;100.00;77804.72;5055823;28;19971;-79
2021/10/14 06:29:43;;;;;;;;;;;;;;;-142.75;100.00;77802.75;5055380;28;20407;-78
2021/10/14 06:32:09;;;;;;;;;;;;;;;-142.75;100.00;77804.72;5073646;28;19927;-80
2021/10/14 06:34:34;;;;;;;;;;;;;;;-142.75;100.00;77802.75;5055100;28;20369;-81
2021/10/14 06:36:59;;;;;;;;;;;;;;;-142.75;100.00;77798.81;5073420;28;19943;-80
2021/10/14 06:39:24;;;;;;;;;;;;;;;-142.75;100.00;77806.69;5073217;28;20554;-79
2021/10/14 06:41:49;;;;;;;;;;;;;;;-142.75;100.00;77804.72;5055577;28;19944;-79
2021/10/14 06:44:15;;;;;;;;;;;;;;;-142.75;100.00;77798.81;5073009;28;20029;-79
2021/10/14 06:46:40;;;;;;;;;;;;;;;-142.75;100.00;77794.88;5074062;28;19916;-79
2021/10/14 06:49:05;;;;;;;;;;;;;;;-142.75;100.00;77794.88;5073438;28;19916;-80
2021/10/14 06:51:31;;;;;;;;;;;;;;;-142.75;100.00;77792.91;5072532;28;19930;-80
2021/10/14 06:53:56;;;;;;;;;;;;;;;-142.75;100.00;77788.97;5055556;28;19916;-82
2021/10/14 06:56:21;;;;;;;;;;;;;;;-142.75;100.00;77787.00;5073513;28;20007;-82
2021/10/14 06:58:47;;;;;;;;;;;;;;;-142.75;100.00;77788.97;5073559;28;20004;-81
2021/10/14 07:01:13;;;;;;;;;;;;;;;-142.75;100.00;77788.97;5054606;28;19963;-81
2021/10/14 07:03:44;;;;;;;;;;;;;;;-142.75;100.00;77783.06;5072501;28;19916;-80
2021/10/14 07:06:10;;;;;;;;;;;;;;;-142.75;100.00;77775.19;5054499;28;19923;-80
2021/10/14 07:08:35;;;;;;;;;;;;;;;-142.75;100.00;77767.31;5053979;28;20027;-81
2021/10/14 07:11:00;;;;;;;;;;;;;;;-142.75;100.00;77767.31;5054041;28;19916;-79
2021/10/14 07:13:26;;;;;;;;;;;;;;;-142.75;100.00;77763.38;5071542;28;19920;-81
2021/10/14 07:15:54;;;;;;;;;;;;;;;-142.75;100.00;77765.34;5054153;28;20019;-82
2021/10/14 07:18:19;;;;;;;;;;;;;;;-142.75;100.00;77767.31;5054449;28;19917;-81
2021/10/14 07:20:45;;;;;;;;;;;;;;;-142.75;100.00;77747.63;5052952;28;19942;-81
2021/10/14 07:23:11;;;;;;;;;;;;;;;-142.75;100.00;77749.59;5072073;28;20421;-81
2021/10/14 07:25:37;;;;;;;;;;;;;;;-142.75;100.00;77739.75;5053507;28;20007;-81
2021/10/14 07:28:03;;;;;;;;;;;;;;;-142.75;100.00;77745.66;5053450;28;20114;-81
2021/10/14 07:30:28;;;;;;;;;;;;;;;-142.75;100.00;77747.63;5071639;28;20438;-82
2021/10/14 07:32:53;;;;;;;;;;;;;;;-142.75;100.00;77739.75;5072530;28;19924;-80
2021/10/14 07:35:21;;;;;;;;;;;;;;;-142.75;100.00;77741.72;5054003;28;19920;-81
2021/10/14 07:37:46;;;;;;;;;;;;;;;-142.75;100.00;77735.81;5054542;28;19916;-82
2021/10/14 07:40:15;;;;;;;;;;;;;;;-142.75;100.00;77727.94;5054626;28;19931;-80
2021/10/14 07:42:40;;;;;;;;;;;;;;;-142.75;100.00;77731.88;5055289;28;19916;-81
2021/10/14 07:45:14;;;;;;;;;;;;;;;-142.75;100.00;77727.94;5057579;28;19923;-81
2021/10/14 07:47:44;;;;;;;;;;;;;;;-142.75;100.00;77737.78;5056524;28;20716;-82
2021/10/14 07:50:12;;;;;;;;;;;;;;;-142.75;100.00;77737.78;5059893;22;19925;-81
2021/10/14 07:52:41;;;;;;;;;;;;;;;-142.75;100.00;77729.88;5038173;28;19928;-80
2021/10/14 07:55:07;;;;;;;;;;;;;;;-142.75;100.00;77733.84;5037878;28;19920;-79
2021/10/14 07:57:34;;;;;;;;;;;;;;;-142.75;100.00;77739.75;5055946;28;19924;-79
2021/10/14 07:59:59;;;;;;;;;;;;;;;-142.75;100.00;77743.69;5035441;28;19924;-79
2021/10/14 08:02:25;;;;;;;;;;;;;;;-142.75;100.00;77741.72;5027025;28;19917;-81
2021/10/14 08:04:52;;;;;;;;;;;;;;;-142.75;100.00;77731.88;5028283;28;19921;-81
2021/10/14 08:07:18;;;;;;;;;;;;;;;-142.75;100.00;77743.69;5028193;28;20330;-81
2021/10/14 08:09:43;;;;;;;;;;;;;;;-142.75;100.00;77745.66;5025193;28;20004;-81
2021/10/14 08:12:09;;;;;;;;;;;;;;;-142.75;100.00;77747.63;5027107;28;19920;-82
2021/10/14 08:14:34;;;;;;;;;;;;;;;-142.75;100.00;77741.72;5027930;28;20326;-82
2021/10/14 08:17:00;;;;;;;;;;;;;;;-142.75;100.00;77743.69;5028235;28;19925;-80
2021/10/14 08:19:25;;;;;;;;;;;;;;;-142.75;100.00;77745.66;5028878;28;20451;-82
2021/10/14 08:21:50;;;;;;;;;;;;;;;-142.75;100.00;77749.59;5028336;28;20393;-82
2021/10/14 08:24:15;;;;;;;;;;;;;;;-142.75;100.00;77745.66;5026596;28;19920;-82
2021/10/14 08:26:40;;;;;;;;;;;;;;;-142.75;100.00;77743.69;5046287;28;19952;-80
2021/10/14 08:29:05;;;;;;;;;;;;;;;-142.75;100.00;77743.69;5045148;28;19942;-82
2021/10/14 08:31:31;;;;;;;;;;;;;;;-142.75;100.00;77743.69;5028742;28;19923;-81
2021/10/14 08:33:56;;;;;;;;;;;;;;;-142.75;100.00;77735.81;5046157;28;19917;-81
2021/10/14 08:36:21;;;;;;;;;;;;;;;-142.75;100.00;77737.78;5046391;28;19916;-82
2021/10/14 08:38:47;;;;;;;;;;;;;;;-142.75;100.00;77747.63;5027095;28;19978;-82
2021/10/14 08:41:16;;;;;;;;;;;;;;;-142.75;100.00;77749.59;5044124;28;19970;-83
2021/10/14 08:43:41;;;;;;;;;;;;;;;-142.75;100.00;77747.63;5025020;28;19916;-82
2021/10/14 08:46:07;;;;;;;;;;;;;;;-142.75;100.00;77743.69;5046186;28;19976;-83
2021/10/14 08:48:32;;;;;;;;;;;;;;;-142.75;100.00;77739.75;5028096;28;19917;-83
2021/10/14 08:50:57;;;;;;;;;;;;;;;-142.75;100.00;77735.81;5026539;28;19917;-82
2021/10/14 08:53:23;;;;;;;;;;;;;;;-142.75;100.00;77735.81;5024831;28;19921;-81
2021/10/14 08:55:48;;;;;;;;;;;;;;;-142.75;100.00;77761.41;5021456;28;19932;-82
2021/10/14 08:58:13;;;;;;;;;;;;;;;-142.75;100.00;77747.63;5048051;28;19916;-83
2021/10/14 09:00:40;;;;;;;;;;;;;;;-142.75;100.00;77749.59;5043582;28;20380;-82
2021/10/14 09:03:26;;;;;;;;;;;;;;;-142.75;100.00;77745.66;5043930;28;19934;-84
2021/10/14 09:05:51;;;;;;;;;;;;;;;-142.75;100.00;77731.88;5029082;28;19994;-82
2021/10/14 09:08:31;;;;;;;;;;;;;;;-142.75;100.00;77723.97;5027541;28;19960;-82
2021/10/14 09:11:03;;;;;;;;;;;;;;;-142.75;100.00;77714.13;5045075;28;20018;-81
2021/10/14 09:13:28;;;;;;;;;;;;;;;-142.75;100.00;77706.25;5027009;28;20399;-82
2021/10/14 09:16:00;;;;;;;;;;;;;;;-142.75;100.00;77702.31;5042720;28;19924;-84
2021/10/14 09:18:25;;;;;;;;;;;;;;;-142.75;100.00;77686.56;5027805;28;19929;-83
2021/10/14 09:20:50;;;;;;;;;;;;;;;-142.75;100.00;77672.78;5029037;28;20302;-81
2021/10/14 09:23:17;;;;;;;;;;;;;;;-142.75;100.00;77639.31;5028346;28;19916;-82
2021/10/14 09:25:49;;;;;;;;;;;;;;;-142.75;100.00;77605.84;5043733;28;19921;-81
2021/10/14 09:28:15;;;;;;;;;;;;;;;-142.75;100.00;77566.47;5028298;28;20413;-82
2021/10/14 09:30:59;;;;;;;;;;;;;;;-142.75;100.00;77542.84;5044193;28;19944;-82
2021/10/14 09:33:39;;;;;;;;;;;;;;;-142.75;100.00;77499.53;5043849;28;19978;-82
2021/10/14 09:36:16;;;;;;;;;;;;;;;-142.75;100.00;77436.50;5027176;28;20382;-81
2021/10/14 09:38:42;;;;;;;;;;;;;;;-142.75;100.00;77410.91;5046443;28;19916;-82
2021/10/14 09:41:09;;;;;;;;;;;;;;;-142.75;100.00;77338.06;5042322;28;19916;-83
2021/10/14 09:43:35;;;;;;;;;;;;;;;-142.75;100.00;77312.47;5027502;28;20008;-84
2021/10/14 09:46:00;;;;;;;;;;;;;;;-142.75;100.00;77290.81;5021253;28;20012;-81
2021/10/14 09:48:25;;;;;;;;;;;;;;;-142.75;100.00;77300.66;5041249;28;19920;-82
2021/10/14 09:50:51;;;;;;;;;;;;;;;-142.75;100.00;77300.66;5043205;28;19917;-80
2021/10/14 09:53:17;;;;;;;;;;;;;;;-142.75;100.00;77259.31;5046221;28;19921;-81
2021/10/14 09:55:43;;;;;;;;;;;;;;;-142.75;100.00;77237.66;5040823;28;19944;-81
2021/10/14 09:58:08;;;;;;;;;;;;;;;-142.75;100.00;77245.53;5043703;28;19967;-81
2021/10/14 10:00:36;;;;;;;;;;;;;;;-142.75;100.00;77245.53;5045528;28;20293;-82
2021/10/14 10:03:03;;;;;;;;;;;;;;;-142.75;100.00;77239.63;5025374;28;19925;-81
2021/10/14 10:05:30;;;;;;;;;;;;;;;-142.75;100.00;77239.63;5027137;28;19917;-81
2021/10/14 10:07:56;;;;;;;;;;;;;;;-142.75;100.00;77223.88;5022940;28;19921;-81
2021/10/14 10:10:23;;;;;;;;;;;;;;;-142.75;100.00;77168.75;5041559;28;19917;-81
2021/10/14 10:12:49;;;;;;;;;;;;;;;-142.75;100.00;77125.44;5042899;28;19944;-83
2021/10/14 10:15:14;;;;;;;;;;;;;;;-142.75;100.00;77131.34;5044208;28;20321;-79
2021/10/14 10:17:40;;;;;;;;;;;;;;;-142.75;100.00;77168.75;5022528;28;19935;-81
2021/10/14 10:20:07;;;;;;;;;;;;;;;-142.75;100.00;77223.88;5026366;28;20333;-81
2021/10/14 10:22:35;;;;;;;;;;;;;;;-142.75;100.00;77271.13;5028910;28;19921;-80
2021/10/14 10:25:19;;;;;;;;;;;;;;;-142.75;100.00;77332.16;5043575;28;19967;-80
2021/10/14 10:27:44;;;;;;;;;;;;;;;-142.75;100.00;77359.72;5043630;28;20004;-82
2021/10/14 10:30:11;;;;;;;;;;;;;;;-142.75;100.00;77373.50;5044602;28;20014;-81
2021/10/14 10:32:46;;;;;;;;;;;;;;;-142.75;100.00;77367.59;5027158;28;19925;-82
2021/10/14 10:35:32;;;;;;;;;;;;;;;-142.75;100.00;77343.97;5041864;28;20410;-83
2021/10/14 10:38:11;;;;;;;;;;;;;;;-142.75;100.00;77326.25;5042874;28;19924;-80
2021/10/14 10:40:39;;;;;;;;;;;;;;;-142.75;100.00;77322.31;5046696;28;19940;-82
2021/10/14 10:43:06;;;;;;;;;;;;;;;-142.75;100.00;77298.69;5025208;28;19916;-82
2021/10/14 10:45:41;;;;;;;;;;;;;;;-142.75;100.00;77263.25;5039032;28;20294;-81
2021/10/14 10:48:06;;;;;;;;;;;;;;;-142.75;100.00;77247.50;5026205;28;19924;-81
2021/10/14 10:50:31;;;;;;;;;;;;;;;-142.75;100.00;77172.69;5023275;28;19921;-82
2021/10/14 10:53:05;;;;;;;;;;;;;;;-142.75;100.00;77141.19;5043876;28;20370;-81
2021/10/14 10:55:33;;;;;;;;;;;;;;;-142.75;100.00;77154.97;5024917;28;19920;-80
2021/10/14 10:57:59;;;;;;;;;;;;;;;-142.75;100.00;77223.88;5041841;28;20024;-79
2021/10/14 11:00:24;;;;;;;;;;;;;;;-142.75;100.00;77279.00;5040558;28;19949;-80
2021/10/14 11:03:06;;;;;;;;;;;;;;;-142.75;100.00;77275.06;5022687;28;20008;-79
2021/10/14 11:05:38;;;;;;;;;;;;;;;-142.75;100.00;77277.03;5024509;28;20027;-82
2021/10/14 11:08:07;;;;;;;;;;;;;;;-142.75;100.00;77334.13;5026705;28;19925;-80
2021/10/14 11:10:32;;;;;;;;;;;;;;;-142.75;100.00;77342.00;5041586;28;19948;-80
2021/10/14 11:12:58;;;;;;;;;;;;;;;-142.75;100.00;77351.84;5043889;28;19971;-81
2021/10/14 11:15:26;;;;;;;;;;;;;;;-142.75;100.00;77349.88;5042796;28;19921;-79
2021/10/14 11:17:59;;;;;;;;;;;;;;;-142.75;100.00;77359.72;5042427;28;19968;-79
2021/10/14 11:20:24;;;;;;;;;;;;;;;-142.75;100.00;77361.69;5040641;28;20260;-81
2021/10/14 11:22:49;;;;;;;;;;;;;;;-142.75;100.00;77353.81;5023635;28;19931;-80
2021/10/14 11:25:15;;;;;;;;;;;;;;;-142.75;100.00;77349.88;5025105;28;19924;-80
2021/10/14 11:27:44;;;;;;;;;;;;;;;-142.75;100.00;77336.09;5024463;28;19936;-79
2021/10/14 11:30:16;;;;;;;;;;;;;;;-142.75;100.00;77324.28;5023202;28;20279;-78
2021/10/14 11:32:47;;;;;;;;;;;;;;;-142.75;100.00;77322.31;5043167;28;19924;-81
2021/10/14 11:35:13;;;;;;;;;;;;;;;-142.75;100.00;77328.22;5022861;28;19923;-81
2021/10/14 11:37:38;;;;;;;;;;;;;;;-142.75;100.00;77324.28;5025179;28;20005;-81
2021/10/14 11:42:37;;;;;;;;;;;;;;;-142.75;100.00;77322.31;5103290;22;19924;-82
2021/10/14 11:45:03;;;;;;;;;;;;;;;-142.75;100.00;77314.44;5069655;28;20400;-82
2021/10/14 11:47:28;;;;;;;;;;;;;;;-142.75;100.00;77312.47;5065235;28;20331;-81
2021/10/14 11:50:01;;;;;;;;;;;;;;;-142.75;100.00;77314.44;5066422;28;20370;-79
2021/10/14 11:52:27;;;;;;;;;;;;;;;-142.75;100.00;77322.31;5069226;28;19927;-80
2021/10/14 11:54:52;;;;;;;;;;;;;;;-142.75;100.00;77324.28;5048497;28;19928;-80
2021/10/14 11:57:28;;;;;;;;;;;;;;;-142.75;100.00;77324.28;5046110;28;19923;-82
2021/10/14 11:59:53;;;;;;;;;;;;;;;-142.75;100.00;77330.19;5045498;28;20019;-79
2021/10/14 12:02:20;;;;;;;;;;;;;;;-142.75;100.00;77330.19;5048021;28;19944;-80
2021/10/14 12:04:49;;;;;;;;;;;;;;;-142.75;100.00;77310.50;5046283;28;20373;-80
2021/10/14 12:07:18;;;;;;;;;;;;;;;-142.75;100.00;77271.13;5046576;28;20377;-80
2021/10/14 12:09:44;;;;;;;;;;;;;;;-142.75;100.00;77216.00;5048474;28;19924;-80
2021/10/14 12:12:12;;;;;;;;;;;;;;;-142.75;100.00;77156.94;5046979;28;19921;-81
2021/10/14 12:14:38;;;;;;;;;;;;;;;-142.75;100.00;77111.66;5046197;28;19973;-78
2021/10/14 12:17:08;;;;;;;;;;;;;;;-142.75;100.00;77099.84;5065851;28;19916;-78